Time,TemperatureF,DewpointF,PressureIn,WindDirection,WindDirectionDegrees,WindSpeedMPH,WindSpeedGustMPH,Humidity,HourlyPrecipIn,Conditions,Clouds,dailyrainin,SoftwareType,DateUTC
2013-08-19 00:00:00,75.5,59.7,24.27,SE,127,0.0,1.0,58,0.00,,SKC,0.00,VWS V14.01,2013-08-19 05:00:00,
2013-08-19 00:03:00,74.8,60.9,24.27,SE,127,0.0,1.0,62,0.00,,SKC,0.00,VWS V14.01,2013-08-19 05:03:00,
2013-08-19 00:09:00,74.7,60.4,24.27,SE,127,0.0,1.0,61,0.00,,SKC,0.00,VWS V14.01,2013-08-19 05:09:00,
2013-08-19 00:15:00,74.9,60.6,24.27,SE,127,0.0,3.0,61,0.00,,SKC,0.00,VWS V14.01,2013-08-19 05:15:00,
2013-08-19 00:21:00,75.2,60.4,24.27,East,82,0.0,5.0,60,0.00,,SKC,0.00,VWS V14.01,2013-08-19 05:21:00,
2013-08-19 00:27:00,75.3,60.9,24.27,East,82,1.0,5.0,61,0.00,,SKC,0.00,VWS V14.01,2013-08-19 05:27:00,
2013-08-19 00:30:00,75.5,60.2,24.27,SE,127,0.0,1.0,59,0.00,,SKC,0.00,VWS V14.01,2013-08-19 05:30:00,
2013-08-19 00:33:00,75.1,60.8,24.27,East,82,0.0,2.0,61,0.00,,SKC,0.00,VWS V14.01,2013-08-19 05:33:00,
2013-08-19 00:39:00,75.1,60.8,24.27,East,82,0.0,2.0,61,0.00,,SKC,0.00,VWS V14.01,2013-08-19 05:39:00,
2013-08-19 00:45:00,74.9,61.0,24.27,East,83,2.0,2.0,62,0.00,,SKC,0.00,VWS V14.01,2013-08-19 05:45:00,
2013-08-19 00:51:00,74.9,61.0,24.27,ENE,70,0.0,3.0,62,0.00,,SKC,0.00,VWS V14.01,2013-08-19 05:51:00,
2013-08-19 00:57:00,74.8,61.4,24.27,ENE,71,1.0,3.0,63,0.00,,SKC,0.00,VWS V14.01,2013-08-19 05:57:00,
2013-08-19 01:00:00,74.8,60.5,24.27,SE,127,0.0,2.0,61,0.00,,SKC,0.00,VWS V14.01,2013-08-19 06:00:00,
2013-08-19 01:03:00,74.8,61.4,24.27,East,96,0.0,3.0,63,0.00,,SKC,0.00,VWS V14.01,2013-08-19 06:03:00,
2013-08-19 01:09:00,74.5,61.5,24.27,East,84,0.0,3.0,64,0.00,,SKC,0.00,VWS V14.01,2013-08-19 06:09:00,
2013-08-19 01:15:00,74.4,62.3,24.27,ESE,102,1.0,3.0,66,0.00,,SKC,0.00,VWS V14.01,2013-08-19 06:15:00,
2013-08-19 01:21:00,74.3,62.2,24.27,East,97,2.0,5.0,66,0.00,,SKC,0.00,VWS V14.01,2013-08-19 06:21:00,
2013-08-19 01:27:00,74.5,62.8,24.27,ESE,111,1.0,5.0,67,0.00,,SKC,0.00,VWS V14.01,2013-08-19 06:27:00,
2013-08-19 01:30:00,75.2,60.8,24.27,East,82,0.0,5.0,61,0.00,,SKC,0.00,VWS V14.01,2013-08-19 06:30:00,
2013-08-19 01:33:00,74.8,63.1,24.27,East,100,5.0,5.0,67,0.00,,SKC,0.00,VWS V14.01,2013-08-19 06:33:00,
2013-08-19 01:39:00,75.1,63.4,24.27,ENE,76,0.0,5.0,67,0.00,,SKC,0.00,VWS V14.01,2013-08-19 06:39:00,
2013-08-19 01:45:00,75.2,63.9,24.27,East,81,2.0,5.0,68,0.00,,SKC,0.00,VWS V14.01,2013-08-19 06:45:00,
2013-08-19 01:51:00,75.4,64.1,24.27,East,96,2.0,7.0,68,0.00,,SKC,0.00,VWS V14.01,2013-08-19 06:51:00,
2013-08-19 01:57:00,75.5,64.2,24.27,East,101,0.0,7.0,68,0.00,,SKC,0.00,VWS V14.01,2013-08-19 06:57:00,
2013-08-19 02:00:00,74.8,61.8,24.27,East,96,1.0,3.0,64,0.00,,SKC,0.00,VWS V14.01,2013-08-19 07:00:00,
2013-08-19 02:03:00,75.3,64.0,24.27,East,90,5.0,5.0,68,0.00,,SKC,0.00,VWS V14.01,2013-08-19 07:03:00,
2013-08-19 02:09:00,75.4,64.1,24.27,East,90,3.0,6.0,68,0.00,,SKC,0.00,VWS V14.01,2013-08-19 07:09:00,
2013-08-19 02:15:00,75.4,64.5,24.27,East,100,2.0,7.0,69,0.00,,SKC,0.00,VWS V14.01,2013-08-19 07:15:00,
2013-08-19 02:21:00,75.4,64.5,24.27,East,91,2.0,7.0,69,0.00,,SKC,0.00,VWS V14.01,2013-08-19 07:21:00,
2013-08-19 02:27:00,75.4,64.5,24.27,East,92,2.0,7.0,69,0.00,,SKC,0.00,VWS V14.01,2013-08-19 07:27:00,
2013-08-19 02:30:00,75.4,64.5,24.27,East,82,1.0,7.0,69,0.00,,SKC,0.00,VWS V14.01,2013-08-19 07:30:00,
2013-08-19 02:33:00,75.4,64.9,24.27,East,94,2.0,6.0,70,0.00,,SKC,0.00,VWS V14.01,2013-08-19 07:33:00,
2013-08-19 02:39:00,75.1,64.7,24.27,East,86,3.0,6.0,70,0.00,,SKC,0.00,VWS V14.01,2013-08-19 07:39:00,
2013-08-19 02:45:00,74.8,64.8,24.27,East,89,3.0,7.0,71,0.00,,SKC,0.00,VWS V14.01,2013-08-19 07:45:00,
2013-08-19 02:51:00,74.5,64.5,24.27,ENE,76,2.0,7.0,71,0.00,,SKC,0.00,VWS V14.01,2013-08-19 07:51:00,
2013-08-19 02:57:00,74.4,64.8,24.27,East,88,1.0,7.0,72,0.00,,SKC,0.00,VWS V14.01,2013-08-19 07:57:00,
2013-08-19 03:00:00,75.4,64.1,24.27,East,96,2.0,7.0,68,0.00,,SKC,0.00,VWS V14.01,2013-08-19 08:00:00,
2013-08-19 03:03:00,74.3,64.7,24.27,East,91,1.0,5.0,72,0.00,,SKC,0.00,VWS V14.01,2013-08-19 08:03:00,
2013-08-19 03:09:00,74.1,64.5,24.27,ESE,117,2.0,7.0,72,0.00,,SKC,0.00,VWS V14.01,2013-08-19 08:09:00,
2013-08-19 03:15:00,73.9,64.7,24.27,East,100,2.0,7.0,73,0.00,,SKC,0.00,VWS V14.01,2013-08-19 08:15:00,
2013-08-19 03:21:00,73.7,64.5,24.27,East,93,1.0,7.0,73,0.00,,SKC,0.00,VWS V14.01,2013-08-19 08:21:00,
2013-08-19 03:27:00,73.4,64.6,24.27,East,81,2.0,7.0,74,0.00,,SKC,0.00,VWS V14.01,2013-08-19 08:27:00,
2013-08-19 03:30:00,75.4,64.5,24.27,East,82,1.0,7.0,69,0.00,,SKC,0.00,VWS V14.01,2013-08-19 08:30:00,
2013-08-19 03:33:00,73.3,64.5,24.27,ESE,103,3.0,6.0,74,0.00,,SKC,0.00,VWS V14.01,2013-08-19 08:33:00,
2013-08-19 03:39:00,73.1,64.3,24.27,East,94,1.0,7.0,74,0.00,,SKC,0.00,VWS V14.01,2013-08-19 08:39:00,
2013-08-19 03:45:00,73.0,64.6,24.27,East,86,2.0,8.0,75,0.00,,SKC,0.00,VWS V14.01,2013-08-19 08:45:00,
2013-08-19 03:51:00,72.9,64.5,24.27,ESE,113,0.0,8.0,75,0.00,,SKC,0.00,VWS V14.01,2013-08-19 08:51:00,
2013-08-19 03:57:00,72.8,64.8,24.27,East,91,1.0,8.0,76,0.00,,SKC,0.00,VWS V14.01,2013-08-19 08:57:00,
2013-08-19 04:00:00,74.3,64.7,24.27,East,92,0.0,7.0,72,0.00,,SKC,0.00,VWS V14.01,2013-08-19 09:00:00,
2013-08-19 04:03:00,72.6,64.6,24.27,East,98,5.0,7.0,76,0.00,,SKC,0.00,VWS V14.01,2013-08-19 09:03:00,
2013-08-19 04:09:00,72.5,64.5,24.27,East,91,5.0,7.0,76,0.00,,SKC,0.00,VWS V14.01,2013-08-19 09:09:00,
2013-08-19 04:15:00,72.3,64.3,24.27,East,96,2.0,7.0,76,0.00,,SKC,0.00,VWS V14.01,2013-08-19 09:15:00,
2013-08-19 04:21:00,72.1,64.5,24.27,East,97,1.0,7.0,77,0.00,,SKC,0.00,VWS V14.01,2013-08-19 09:21:00,
2013-08-19 04:27:00,72.0,64.4,24.27,East,82,3.0,7.0,77,0.00,,SKC,0.00,VWS V14.01,2013-08-19 09:27:00,
2013-08-19 04:30:00,73.3,64.5,24.27,East,95,6.0,7.0,74,0.00,,SKC,0.00,VWS V14.01,2013-08-19 09:30:00,
2013-08-19 04:33:00,71.9,64.7,24.27,ESE,104,1.0,6.0,78,0.00,,SKC,0.00,VWS V14.01,2013-08-19 09:33:00,
2013-08-19 04:39:00,71.8,64.6,24.27,ENE,77,1.0,6.0,78,0.00,,SKC,0.00,VWS V14.01,2013-08-19 09:39:00,
2013-08-19 04:45:00,71.7,64.5,24.27,East,90,2.0,6.0,78,0.00,,SKC,0.00,VWS V14.01,2013-08-19 09:45:00,
2013-08-19 04:51:00,71.6,64.8,19.59,ESE,115,1.0,7.0,79,0.00,,SKC,0.00,VWS V14.01,2013-08-19 09:51:00,
2013-08-19 04:57:00,71.5,64.7,19.59,East,98,2.0,7.0,79,0.00,,SKC,0.00,VWS V14.01,2013-08-19 09:57:00,
2013-08-19 05:00:00,72.6,64.6,24.27,East,96,2.0,8.0,76,0.00,,SKC,0.00,VWS V14.01,2013-08-19 10:00:00,
2013-08-19 05:03:00,71.5,64.7,19.59,East,96,2.0,6.0,79,0.00,,SKC,0.00,VWS V14.01,2013-08-19 10:03:00,
2013-08-19 05:09:00,71.5,64.7,19.59,ESE,110,2.0,6.0,79,0.00,,SKC,0.00,VWS V14.01,2013-08-19 10:09:00,
2013-08-19 05:15:00,71.5,65.0,19.59,ESE,111,1.0,7.0,80,0.00,,SKC,0.00,VWS V14.01,2013-08-19 10:15:00,
2013-08-19 05:21:00,71.5,65.0,19.59,East,90,2.0,7.0,80,0.00,,SKC,0.00,VWS V14.01,2013-08-19 10:21:00,
2013-08-19 05:28:00,71.4,64.9,19.59,ESE,109,1.0,7.0,80,0.00,,SKC,0.00,VWS V14.01,2013-08-19 10:28:00,
2013-08-19 05:30:00,71.9,64.7,24.27,ENE,77,5.0,7.0,78,0.00,,SKC,0.00,VWS V14.01,2013-08-19 10:30:00,
2013-08-19 05:34:00,71.3,65.2,19.59,East,86,2.0,5.0,81,0.00,,SKC,0.00,VWS V14.01,2013-08-19 10:34:00,
2013-08-19 05:40:00,71.2,65.1,19.59,East,82,3.0,5.0,81,0.00,,SKC,0.00,VWS V14.01,2013-08-19 10:40:00,
2013-08-19 05:46:00,71.2,65.1,19.59,ESE,107,2.0,7.0,81,0.00,,SKC,0.00,VWS V14.01,2013-08-19 10:46:00,
2013-08-19 05:52:00,71.2,65.1,19.59,ESE,106,2.0,7.0,81,0.00,,SKC,0.00,VWS V14.01,2013-08-19 10:52:00,
2013-08-19 05:58:00,71.2,65.4,19.59,ENE,77,3.0,7.0,82,0.00,,SKC,0.00,VWS V14.01,2013-08-19 10:58:00,
2013-08-19 06:00:00,71.5,64.7,19.59,ESE,121,1.0,7.0,79,0.00,,SKC,0.00,VWS V14.01,2013-08-19 11:00:00,
2013-08-19 06:04:00,71.1,65.3,19.59,ESE,115,3.0,5.0,82,0.00,,SKC,0.00,VWS V14.01,2013-08-19 11:04:00,
2013-08-19 06:10:00,71.0,65.2,19.59,ESE,102,3.0,5.0,82,0.00,,SKC,0.00,VWS V14.01,2013-08-19 11:10:00,
2013-08-19 06:16:00,70.9,65.5,19.59,ESE,109,0.0,6.0,83,0.00,,SKC,0.00,VWS V14.01,2013-08-19 11:16:00,
2013-08-19 06:22:00,70.9,65.5,19.59,East,79,2.0,7.0,83,0.00,,SKC,0.00,VWS V14.01,2013-08-19 11:22:00,
2013-08-19 06:28:00,70.8,65.4,19.59,SE,140,0.0,7.0,83,0.00,,SKC,0.00,VWS V14.01,2013-08-19 11:28:00,
2013-08-19 06:30:00,71.3,65.2,19.59,ENE,67,4.0,7.0,81,0.00,,SKC,0.00,VWS V14.01,2013-08-19 11:30:00,
2013-08-19 06:34:00,70.7,65.3,19.59,SE,128,0.0,3.0,83,0.00,,SKC,0.00,VWS V14.01,2013-08-19 11:34:00,
2013-08-19 06:40:00,70.6,65.5,19.59,ESE,119,4.0,4.0,84,0.00,,SKC,0.00,VWS V14.01,2013-08-19 11:40:00,
2013-08-19 06:46:00,70.6,65.5,19.59,ENE,74,0.0,5.0,84,0.00,,SKC,0.00,VWS V14.01,2013-08-19 11:46:00,
2013-08-19 06:52:00,70.5,65.4,19.59,East,97,2.0,5.0,84,0.00,,SKC,0.00,VWS V14.01,2013-08-19 11:52:00,
2013-08-19 06:58:00,70.4,65.3,19.59,ESE,107,0.0,5.0,84,0.00,,SKC,0.00,VWS V14.01,2013-08-19 11:58:00,
2013-08-19 07:00:00,71.1,65.3,19.59,ESE,117,0.0,7.0,82,0.00,,SKC,0.00,VWS V14.01,2013-08-19 12:00:00,
2013-08-19 07:04:00,70.4,65.7,19.59,ENE,76,1.0,4.0,85,0.00,,SKC,0.00,VWS V14.01,2013-08-19 12:04:00,
2013-08-19 07:10:00,70.5,65.8,19.59,ESE,102,1.0,6.0,85,0.00,,SKC,0.00,VWS V14.01,2013-08-19 12:10:00,
2013-08-19 07:16:00,70.6,65.9,19.59,ENE,61,1.0,6.0,85,0.00,,SKC,0.00,VWS V14.01,2013-08-19 12:16:00,
2013-08-19 07:22:00,70.8,66.1,19.59,SE,133,3.0,6.0,85,0.00,,SKC,0.00,VWS V14.01,2013-08-19 12:22:00,
2013-08-19 07:28:00,71.2,66.1,19.59,ESE,108,0.0,6.0,84,0.00,,SKC,0.00,VWS V14.01,2013-08-19 12:28:00,
2013-08-19 07:30:00,70.8,65.4,19.59,ESE,103,1.0,7.0,83,0.00,,SKC,0.00,VWS V14.01,2013-08-19 12:30:00,
2013-08-19 07:34:00,71.5,66.4,19.59,ESE,113,1.0,3.0,84,0.00,,SKC,0.00,VWS V14.01,2013-08-19 12:34:00,
2013-08-19 07:40:00,71.9,66.5,19.59,East,97,1.0,6.0,83,0.00,,SKC,0.00,VWS V14.01,2013-08-19 12:40:00,
2013-08-19 07:46:00,72.2,66.8,19.59,ENE,61,3.0,7.0,83,0.00,,SKC,0.00,VWS V14.01,2013-08-19 12:46:00,
2013-08-19 07:52:00,72.7,66.9,19.59,East,95,2.0,7.0,82,0.00,,SKC,0.00,VWS V14.01,2013-08-19 12:52:00,
2013-08-19 07:58:00,73.2,67.0,19.59,ESE,103,7.0,7.0,81,0.00,,SKC,0.00,VWS V14.01,2013-08-19 12:58:00,
2013-08-19 08:00:00,70.4,65.7,19.59,ESE,120,4.0,5.0,85,0.00,,SKC,0.00,VWS V14.01,2013-08-19 13:00:00,
2013-08-19 08:04:00,73.7,67.2,19.59,ESE,102,1.0,5.0,80,0.00,,SKC,0.00,VWS V14.01,2013-08-19 13:04:00,
2013-08-19 08:10:00,74.0,67.1,19.59,East,84,5.0,6.0,79,0.00,,SKC,0.00,VWS V14.01,2013-08-19 13:10:00,
2013-08-19 08:16:00,74.4,67.1,19.59,ESE,111,2.0,9.0,78,0.00,,SKC,0.00,VWS V14.01,2013-08-19 13:16:00,
2013-08-19 08:22:00,74.8,67.5,19.59,ESE,113,2.0,9.0,78,0.00,,SKC,0.00,VWS V14.01,2013-08-19 13:22:00,
2013-08-19 08:28:00,75.3,67.6,19.59,SE,126,5.0,9.0,77,0.00,,SKC,0.00,VWS V14.01,2013-08-19 13:28:00,
2013-08-19 08:30:00,71.4,66.3,19.59,NE,49,0.0,6.0,84,0.00,,SKC,0.00,VWS V14.01,2013-08-19 13:30:00,
2013-08-19 08:34:00,75.8,67.7,19.59,East,100,1.0,5.0,76,0.00,,SKC,0.00,VWS V14.01,2013-08-19 13:34:00,
2013-08-19 08:40:00,76.4,67.5,19.59,SSE,156,4.0,9.0,74,0.00,,SKC,0.00,VWS V14.01,2013-08-19 13:40:00,
2013-08-19 08:46:00,76.9,67.6,19.59,SE,128,3.0,9.0,73,0.00,,SKC,0.00,VWS V14.01,2013-08-19 13:46:00,
2013-08-19 08:52:00,77.5,67.8,19.59,ENE,76,4.0,9.0,72,0.00,,SKC,0.00,VWS V14.01,2013-08-19 13:52:00,
2013-08-19 08:58:00,77.9,67.8,19.59,SSE,153,5.0,9.0,71,0.00,,SKC,0.00,VWS V14.01,2013-08-19 13:58:00,
2013-08-19 09:00:00,78.0,67.4,19.59,SE,140,3.0,9.0,70,0.00,,SKC,0.00,VWS V14.01,2013-08-19 14:00:00,
2013-08-19 09:04:00,78.2,67.6,19.59,ESE,109,1.0,5.0,70,0.00,,SKC,0.00,VWS V14.01,2013-08-19 14:04:00,
2013-08-19 09:10:00,78.6,67.6,19.59,SE,128,0.0,7.0,69,0.00,,SKC,0.00,VWS V14.01,2013-08-19 14:10:00,
2013-08-19 09:16:00,79.5,68.4,19.59,SE,133,2.0,7.0,69,0.00,,SKC,0.00,VWS V14.01,2013-08-19 14:16:00,
2013-08-19 09:22:00,80.2,68.3,19.59,East,94,6.0,8.0,67,0.00,,SKC,0.00,VWS V14.01,2013-08-19 14:22:00,
2013-08-19 09:28:00,80.2,68.3,19.59,SE,136,4.0,9.0,67,0.00,,SKC,0.00,VWS V14.01,2013-08-19 14:28:00,
2013-08-19 09:30:00,80.2,67.8,19.59,SE,142,2.0,9.0,66,0.00,,SKC,0.00,VWS V14.01,2013-08-19 14:30:00,
2013-08-19 09:34:00,80.2,68.3,19.59,South,178,0.0,5.0,67,0.00,,SKC,0.00,VWS V14.01,2013-08-19 14:34:00,
2013-08-19 09:40:00,80.6,67.8,19.59,ESE,105,3.0,8.0,65,0.00,,SKC,0.00,VWS V14.01,2013-08-19 14:40:00,
2013-08-19 09:46:00,81.2,68.3,19.59,SSE,167,2.0,8.0,65,0.00,,SKC,0.00,VWS V14.01,2013-08-19 14:46:00,
2013-08-19 09:52:00,81.6,68.2,19.59,SSE,161,3.0,8.0,64,0.00,,SKC,0.00,VWS V14.01,2013-08-19 14:52:00,
2013-08-19 09:58:00,81.7,67.9,19.59,East,93,5.0,9.0,63,0.00,,SKC,0.00,VWS V14.01,2013-08-19 14:58:00,
2013-08-19 10:00:00,78.0,67.4,19.59,SE,140,3.0,9.0,70,0.00,,SKC,0.00,VWS V14.01,2013-08-19 15:00:00,
2013-08-19 10:04:00,82.0,68.2,19.59,SSE,147,3.0,10.0,63,0.00,,SKC,0.00,VWS V14.01,2013-08-19 15:04:00,
2013-08-19 10:10:00,82.3,68.0,19.59,SSW,196,7.0,10.0,62,0.00,,SKC,0.00,VWS V14.01,2013-08-19 15:10:00,
2013-08-19 10:16:00,82.7,68.8,19.59,ESE,103,5.0,10.0,63,0.00,,SKC,0.00,VWS V14.01,2013-08-19 15:16:00,
2013-08-19 10:22:00,83.3,68.5,19.59,South,183,6.0,11.0,61,0.00,,SKC,0.00,VWS V14.01,2013-08-19 15:22:00,
2013-08-19 10:28:00,83.6,68.7,19.59,SSW,202,4.0,11.0,61,0.00,,SKC,0.00,VWS V14.01,2013-08-19 15:28:00,
2013-08-19 10:30:00,80.2,67.8,19.59,SE,142,2.0,9.0,66,0.00,,SKC,0.00,VWS V14.01,2013-08-19 15:30:00,
2013-08-19 10:34:00,84.1,68.7,19.59,ESE,121,5.0,8.0,60,0.00,,SKC,0.00,VWS V14.01,2013-08-19 15:34:00,
2013-08-19 10:40:00,84.9,69.0,19.59,SE,132,3.0,8.0,59,0.00,,SKC,0.00,VWS V14.01,2013-08-19 15:40:00,
2013-08-19 10:46:00,85.2,68.8,19.59,South,173,2.0,8.0,58,0.00,,SKC,0.00,VWS V14.01,2013-08-19 15:46:00,
2013-08-19 10:52:00,85.4,68.4,19.59,East,98,2.0,8.0,57,0.00,,SKC,0.00,VWS V14.01,2013-08-19 15:52:00,
2013-08-19 10:58:00,85.7,68.2,19.59,South,188,7.0,11.0,56,0.00,,SKC,0.00,VWS V14.01,2013-08-19 15:58:00,
2013-08-19 11:00:00,81.8,68.4,19.59,ESE,115,4.0,11.0,64,0.00,,SKC,0.00,VWS V14.01,2013-08-19 16:00:00,
2013-08-19 11:04:00,86.2,68.2,19.59,SSE,150,4.0,7.0,55,0.00,,SKC,0.00,VWS V14.01,2013-08-19 16:04:00,
2013-08-19 11:10:00,86.2,68.2,19.59,ESE,105,4.0,8.0,55,0.00,,SKC,0.00,VWS V14.01,2013-08-19 16:10:00,
2013-08-19 11:16:00,86.8,68.2,19.59,SE,139,2.0,8.0,54,0.00,,SKC,0.00,VWS V14.01,2013-08-19 16:16:00,
2013-08-19 11:23:00,87.0,67.8,19.59,SSE,168,2.0,9.0,53,0.00,,SKC,0.00,VWS V14.01,2013-08-19 16:23:00,
2013-08-19 11:29:00,87.2,68.0,19.59,SE,137,2.0,9.0,53,0.00,,SKC,0.00,VWS V14.01,2013-08-19 16:29:00,
2013-08-19 11:30:00,83.8,68.4,19.59,ESE,117,3.0,11.0,60,0.00,,SKC,0.00,VWS V14.01,2013-08-19 16:30:00,
2013-08-19 11:35:00,87.7,66.2,19.59,ESE,119,5.0,7.0,49,0.00,,SKC,0.00,VWS V14.01,2013-08-19 16:35:00,
2013-08-19 11:41:00,88.2,66.7,19.59,ESE,111,3.0,8.0,49,0.00,,SKC,0.00,VWS V14.01,2013-08-19 16:41:00,
2013-08-19 11:47:00,88.6,64.6,19.59,ESE,107,4.0,9.0,45,0.00,,SKC,0.00,VWS V14.01,2013-08-19 16:47:00,
2013-08-19 11:53:00,89.2,65.1,19.59,East,95,3.0,10.0,45,0.00,,SKC,0.00,VWS V14.01,2013-08-19 16:53:00,
2013-08-19 11:59:00,89.2,61.8,19.59,ESE,111,4.0,11.0,40,0.00,,SKC,0.00,VWS V14.01,2013-08-19 16:59:00,
2013-08-19 12:00:00,85.9,68.9,19.59,SE,133,6.0,11.0,57,0.00,,SKC,0.00,VWS V14.01,2013-08-19 17:00:00,
2013-08-19 12:05:00,89.6,64.8,19.59,SE,146,7.0,7.0,44,0.00,,SKC,0.00,VWS V14.01,2013-08-19 17:05:00,
2013-08-19 12:11:00,89.9,62.4,19.59,South,173,5.0,9.0,40,0.00,,SKC,0.00,VWS V14.01,2013-08-19 17:11:00,
2013-08-19 12:17:00,89.9,63.8,19.59,SSE,167,3.0,9.0,42,0.00,,SKC,0.00,VWS V14.01,2013-08-19 17:17:00,
2013-08-19 12:23:00,90.2,61.9,19.59,East,94,1.0,9.0,39,0.00,,SKC,0.00,VWS V14.01,2013-08-19 17:23:00,
2013-08-19 12:29:00,90.5,62.9,19.59,SE,145,2.0,10.0,40,0.00,,SKC,0.00,VWS V14.01,2013-08-19 17:29:00,
2013-08-19 12:30:00,87.4,68.7,19.59,SE,141,2.0,9.0,54,0.00,,SKC,0.00,VWS V14.01,2013-08-19 17:30:00,
2013-08-19 12:35:00,90.4,62.8,19.59,SW,232,2.0,7.0,40,0.00,,SKC,0.00,VWS V14.01,2013-08-19 17:35:00,
2013-08-19 12:41:00,90.5,62.9,19.59,South,180,1.0,7.0,40,0.00,,SKC,0.00,VWS V14.01,2013-08-19 17:41:00,
2013-08-19 12:47:00,90.6,63.0,19.59,SE,134,3.0,9.0,40,0.00,,SKC,0.00,VWS V14.01,2013-08-19 17:47:00,
2013-08-19 12:53:00,90.1,62.5,19.59,SSW,204,5.0,9.0,40,0.00,,SKC,0.00,VWS V14.01,2013-08-19 17:53:00,
2013-08-19 12:59:00,90.3,62.7,19.59,SE,136,3.0,9.0,40,0.00,,SKC,0.00,VWS V14.01,2013-08-19 17:59:00,
2013-08-19 13:00:00,89.1,61.7,19.59,SSE,165,0.0,11.0,40,0.00,,SKC,0.00,VWS V14.01,2013-08-19 18:00:00,
2013-08-19 13:05:00,91.0,61.9,19.59,ESE,105,4.0,7.0,38,0.00,,SKC,0.00,VWS V14.01,2013-08-19 18:05:00,
2013-08-19 13:11:00,91.2,62.1,19.59,South,175,2.0,7.0,38,0.00,,SKC,0.00,VWS V14.01,2013-08-19 18:11:00,
2013-08-19 13:17:00,91.0,62.6,19.59,South,170,7.0,8.0,39,0.00,,SKC,0.00,VWS V14.01,2013-08-19 18:17:00,
2013-08-19 13:23:00,92.1,62.1,19.59,ESE,111,2.0,8.0,37,0.00,,SKC,0.00,VWS V14.01,2013-08-19 18:23:00,
2013-08-19 13:29:00,91.9,61.9,19.59,ESE,107,2.0,8.0,37,0.00,,SKC,0.00,VWS V14.01,2013-08-19 18:29:00,
2013-08-19 13:30:00,90.5,62.2,19.59,South,180,3.0,10.0,39,0.00,,SKC,0.00,VWS V14.01,2013-08-19 18:30:00,
2013-08-19 13:35:00,91.6,63.2,19.59,SE,141,5.0,10.0,39,0.00,,SKC,0.00,VWS V14.01,2013-08-19 18:35:00,
2013-08-19 13:41:00,91.3,62.2,19.59,ENE,77,2.0,10.0,38,0.00,,SKC,0.00,VWS V14.01,2013-08-19 18:41:00,
2013-08-19 13:47:00,92.3,63.0,19.59,ESE,103,1.0,10.0,38,0.00,,SKC,0.00,VWS V14.01,2013-08-19 18:47:00,
2013-08-19 13:53:00,93.2,63.1,19.59,ESE,111,1.0,10.0,37,0.00,,SKC,0.00,VWS V14.01,2013-08-19 18:53:00,
2013-08-19 13:59:00,93.0,62.1,19.59,ESE,119,0.0,10.0,36,0.00,,SKC,0.00,VWS V14.01,2013-08-19 18:59:00,
2013-08-19 14:00:00,90.4,63.5,19.59,SSE,162,2.0,9.0,41,0.00,,SKC,0.00,VWS V14.01,2013-08-19 19:00:00,
2013-08-19 14:05:00,93.4,64.8,19.59,ENE,71,4.0,4.0,39,0.00,,SKC,0.00,VWS V14.01,2013-08-19 19:05:00,
2013-08-19 14:11:00,93.9,62.9,19.59,WSW,243,5.0,7.0,36,0.00,,SKC,0.00,VWS V14.01,2013-08-19 19:11:00,
2013-08-19 14:17:00,93.6,61.8,19.59,SE,138,1.0,7.0,35,0.00,,SKC,0.00,VWS V14.01,2013-08-19 19:17:00,
2013-08-19 14:23:00,94.0,61.4,19.59,NE,52,0.0,7.0,34,0.00,,SKC,0.00,VWS V14.01,2013-08-19 19:23:00,
2013-08-19 14:29:00,93.6,61.8,19.59,West,270,3.0,7.0,35,0.00,,SKC,0.00,VWS V14.01,2013-08-19 19:29:00,
2013-08-19 14:30:00,91.7,62.5,19.59,South,174,2.0,8.0,38,0.00,,SKC,0.00,VWS V14.01,2013-08-19 19:30:00,
2013-08-19 14:35:00,93.9,62.9,19.59,East,90,3.0,5.0,36,0.00,,SKC,0.00,VWS V14.01,2013-08-19 19:35:00,
2013-08-19 14:41:00,93.3,60.8,19.59,ESE,109,1.0,8.0,34,0.00,,SKC,0.00,VWS V14.01,2013-08-19 19:41:00,
2013-08-19 14:47:00,93.2,60.7,19.59,East,97,6.0,8.0,34,0.00,,SKC,0.00,VWS V14.01,2013-08-19 19:47:00,
2013-08-19 14:53:00,93.6,61.0,19.59,ESE,107,3.0,8.0,34,0.00,,SKC,0.00,VWS V14.01,2013-08-19 19:53:00,
2013-08-19 14:59:00,93.3,60.8,19.59,ESE,117,3.0,8.0,34,0.00,,SKC,0.00,VWS V14.01,2013-08-19 19:59:00,
2013-08-19 15:00:00,93.0,62.9,19.59,ESE,119,0.0,10.0,37,0.00,,SKC,0.00,VWS V14.01,2013-08-19 20:00:00,
2013-08-19 15:06:00,94.2,61.6,19.59,North,355,0.0,3.0,34,0.00,,SKC,0.00,VWS V14.01,2013-08-19 20:06:00,
2013-08-19 15:12:00,95.3,62.5,19.59,NNW,347,0.0,3.0,34,0.00,,SKC,0.00,VWS V14.01,2013-08-19 20:12:00,
2013-08-19 15:18:00,96.2,61.6,19.59,WNW,295,1.0,5.0,32,0.00,,SKC,0.00,VWS V14.01,2013-08-19 20:18:00,
2013-08-19 15:24:00,96.4,60.9,19.59,SSE,158,1.0,5.0,31,0.00,,SKC,0.00,VWS V14.01,2013-08-19 20:24:00,
2013-08-19 15:30:00,95.6,61.9,19.59,East,93,1.0,8.0,33,0.00,,SKC,0.00,VWS V14.01,2013-08-19 20:30:00,
2013-08-19 15:36:00,95.4,62.6,19.59,NW,325,3.0,5.0,34,0.00,,SKC,0.00,VWS V14.01,2013-08-19 20:36:00,
2013-08-19 15:42:00,94.6,61.9,19.59,SW,229,3.0,7.0,34,0.00,,SKC,0.00,VWS V14.01,2013-08-19 20:42:00,
2013-08-19 15:48:00,93.7,62.7,19.59,WSW,246,2.0,7.0,36,0.00,,SKC,0.00,VWS V14.01,2013-08-19 20:48:00,
2013-08-19 15:54:00,94.0,63.0,19.59,West,263,5.0,7.0,36,0.00,,SKC,0.00,VWS V14.01,2013-08-19 20:54:00,
2013-08-19 16:00:00,94.4,63.4,19.59,West,281,4.0,8.0,36,0.00,,SKC,0.00,VWS V14.01,2013-08-19 21:00:00,
2013-08-19 16:06:00,94.3,62.5,19.59,West,279,3.0,10.0,35,0.00,,SKC,0.00,VWS V14.01,2013-08-19 21:06:00,
2013-08-19 16:12:00,94.3,63.3,19.59,SW,215,7.0,10.0,36,0.00,,SKC,0.00,VWS V14.01,2013-08-19 21:12:00,
2013-08-19 16:18:00,94.9,63.0,19.59,West,267,2.0,10.0,35,0.00,,SKC,0.00,VWS V14.01,2013-08-19 21:18:00,
2013-08-19 16:24:00,95.1,62.3,19.59,West,271,3.0,10.0,34,0.00,,SKC,0.00,VWS V14.01,2013-08-19 21:24:00,
2013-08-19 16:30:00,95.6,62.8,19.59,West,273,0.0,10.0,34,0.00,,SKC,0.00,VWS V14.01,2013-08-19 21:30:00,
2013-08-19 16:36:00,96.1,63.2,19.59,West,271,0.0,6.0,34,0.00,,SKC,0.00,VWS V14.01,2013-08-19 21:36:00,
2013-08-19 16:42:00,96.8,63.0,19.59,ENE,62,0.0,6.0,33,0.00,,SKC,0.00,VWS V14.01,2013-08-19 21:42:00,
2013-08-19 16:48:00,96.4,63.5,19.59,WNW,283,1.0,6.0,34,0.00,,SKC,0.00,VWS V14.01,2013-08-19 21:48:00,
2013-08-19 16:54:00,96.5,62.7,19.59,WSW,247,2.0,6.0,33,0.00,,SKC,0.00,VWS V14.01,2013-08-19 21:54:00,
2013-08-19 17:00:00,96.3,62.5,19.59,NW,325,0.0,6.0,33,0.00,,SKC,0.00,VWS V14.01,2013-08-19 22:00:00,
2013-08-19 17:06:00,96.9,63.9,19.59,West,281,0.0,3.0,34,0.00,,SKC,0.00,VWS V14.01,2013-08-19 22:06:00,
2013-08-19 17:12:00,97.5,62.7,19.59,West,271,0.0,3.0,32,0.00,,SKC,0.00,VWS V14.01,2013-08-19 22:12:00,
2013-08-19 17:18:00,97.4,62.6,19.59,NNW,327,2.0,5.0,32,0.00,,SKC,0.00,VWS V14.01,2013-08-19 22:18:00,
2013-08-19 17:24:00,97.1,63.2,19.59,West,275,2.0,5.0,33,0.00,,SKC,0.00,VWS V14.01,2013-08-19 22:24:00,
2013-08-19 17:30:00,96.9,62.2,19.59,WSW,258,3.0,5.0,32,0.00,,SKC,0.00,VWS V14.01,2013-08-19 22:30:00,
2013-08-19 17:36:00,96.2,62.5,19.59,West,281,3.0,5.0,33,0.00,,SKC,0.00,VWS V14.01,2013-08-19 22:36:00,
2013-08-19 17:42:00,96.2,62.5,19.59,WNW,288,0.0,5.0,33,0.00,,SKC,0.00,VWS V14.01,2013-08-19 22:42:00,
2013-08-19 17:48:00,96.5,61.8,19.59,NW,310,0.0,5.0,32,0.00,,SKC,0.00,VWS V14.01,2013-08-19 22:48:00,
2013-08-19 17:54:00,96.9,62.2,19.59,NW,311,3.0,5.0,32,0.00,,SKC,0.00,VWS V14.01,2013-08-19 22:54:00,
2013-08-19 18:00:00,96.7,62.0,19.59,West,259,1.0,5.0,32,0.00,,SKC,0.00,VWS V14.01,2013-08-19 23:00:00,
2013-08-19 18:06:00,96.6,61.9,19.59,NNW,333,0.0,2.0,32,0.00,,SKC,0.00,VWS V14.01,2013-08-19 23:06:00,
2013-08-19 18:12:00,96.1,61.5,19.59,WSW,257,3.0,6.0,32,0.00,,SKC,0.00,VWS V14.01,2013-08-19 23:12:00,
2013-08-19 18:18:00,95.4,61.8,19.59,NW,307,1.0,6.0,33,0.00,,SKC,0.00,VWS V14.01,2013-08-19 23:18:00,
2013-08-19 18:24:00,95.2,61.6,19.59,WSW,257,1.0,6.0,33,0.00,,SKC,0.00,VWS V14.01,2013-08-19 23:24:00,
2013-08-19 18:30:00,95.0,62.3,19.59,SW,232,0.0,6.0,34,0.00,,SKC,0.00,VWS V14.01,2013-08-19 23:30:00,
2013-08-19 18:36:00,95.2,61.6,19.59,SW,232,2.0,3.0,33,0.00,,SKC,0.00,VWS V14.01,2013-08-19 23:36:00,
2013-08-19 18:42:00,94.4,61.7,19.59,SW,221,4.0,4.0,34,0.00,,SKC,0.00,VWS V14.01,2013-08-19 23:42:00,
2013-08-19 18:48:00,93.4,61.7,19.59,SW,221,1.0,4.0,35,0.00,,SKC,0.00,VWS V14.01,2013-08-19 23:48:00,
2013-08-19 18:54:00,93.0,60.5,19.59,SW,221,0.0,4.0,34,0.00,,SKC,0.00,VWS V14.01,2013-08-19 23:54:00,
2013-08-19 19:00:00,92.9,60.4,19.59,SW,221,0.0,4.0,34,0.00,,SKC,0.00,VWS V14.01,2013-08-20 00:00:00,
2013-08-19 19:06:00,92.7,59.4,19.59,SE,125,0.0,3.0,33,0.00,,SKC,0.00,VWS V14.01,2013-08-20 00:06:00,
2013-08-19 19:12:00,92.3,59.1,19.59,ENE,71,0.0,3.0,33,0.00,,SKC,0.00,VWS V14.01,2013-08-20 00:12:00,
2013-08-19 19:18:00,91.9,59.5,19.59,East,80,2.0,4.0,34,0.00,,SKC,0.00,VWS V14.01,2013-08-20 00:18:00,
2013-08-19 19:24:00,91.6,59.3,19.59,East,80,0.0,4.0,34,0.00,,SKC,0.00,VWS V14.01,2013-08-20 00:24:00,
2013-08-19 19:30:00,91.2,59.8,19.59,East,80,0.0,4.0,35,0.00,,SKC,0.00,VWS V14.01,2013-08-20 00:30:00,
2013-08-19 19:36:00,90.8,60.2,19.59,East,80,0.0,2.0,36,0.00,,SKC,0.00,VWS V14.01,2013-08-20 00:36:00,
2013-08-19 19:42:00,90.4,59.8,19.59,East,80,0.0,3.0,36,0.00,,SKC,0.00,VWS V14.01,2013-08-20 00:42:00,
2013-08-19 19:48:00,90.0,60.3,19.59,East,90,0.0,3.0,37,0.00,,SKC,0.00,VWS V14.01,2013-08-20 00:48:00,
2013-08-19 19:54:00,89.4,60.5,19.59,East,90,0.0,3.0,38,0.00,,SKC,0.00,VWS V14.01,2013-08-20 00:54:00,
2013-08-19 20:00:00,88.8,59.9,19.59,East,91,0.0,3.0,38,0.00,,SKC,0.00,VWS V14.01,2013-08-20 01:00:00,
2013-08-19 20:06:00,88.4,59.6,19.59,East,91,1.0,2.0,38,0.00,,SKC,0.00,VWS V14.01,2013-08-20 01:06:00,
2013-08-19 20:12:00,87.8,59.8,19.59,East,84,2.0,2.0,39,0.00,,SKC,0.00,VWS V14.01,2013-08-20 01:12:00,
2013-08-19 20:18:00,87.2,60.7,19.59,East,81,0.0,2.0,41,0.00,,SKC,0.00,VWS V14.01,2013-08-20 01:18:00,
2013-08-19 20:25:00,86.7,60.9,19.59,East,81,0.0,2.0,42,0.00,,SKC,0.00,VWS V14.01,2013-08-20 01:25:00,
2013-08-19 20:30:00,91.1,59.7,19.59,East,80,2.0,4.0,35,0.00,,SKC,0.00,VWS V14.01,2013-08-20 01:30:00,
2013-08-19 20:31:00,86.0,58.9,19.59,East,81,0.0,2.0,40,0.00,,SKC,0.00,VWS V14.01,2013-08-20 01:31:00,
2013-08-19 20:37:00,85.6,60.6,19.59,East,81,0.0,2.0,43,0.00,,SKC,0.00,VWS V14.01,2013-08-20 01:37:00,
2013-08-19 20:43:00,85.0,60.7,19.59,East,81,0.0,2.0,44,0.00,,SKC,0.00,VWS V14.01,2013-08-20 01:43:00,
2013-08-19 20:49:00,84.3,59.4,19.59,East,81,0.0,2.0,43,0.00,,SKC,0.00,VWS V14.01,2013-08-20 01:49:00,
2013-08-19 20:55:00,83.9,59.0,19.59,East,82,0.0,2.0,43,0.00,,SKC,0.00,VWS V14.01,2013-08-20 01:55:00,
2013-08-19 21:00:00,88.7,59.1,19.59,East,91,0.0,3.0,37,0.00,,SKC,0.00,VWS V14.01,2013-08-20 02:00:00,
2013-08-19 21:01:00,83.7,58.8,19.59,ENE,78,0.0,2.0,43,0.00,,SKC,0.00,VWS V14.01,2013-08-20 02:01:00,
2013-08-19 21:07:00,83.5,59.3,19.59,ENE,78,0.0,1.0,44,0.00,,SKC,0.00,VWS V14.01,2013-08-20 02:07:00,
2013-08-19 21:13:00,83.2,59.0,19.59,ENE,78,0.0,3.0,44,0.00,,SKC,0.00,VWS V14.01,2013-08-20 02:13:00,
2013-08-19 21:19:00,82.7,59.2,19.59,ENE,75,0.0,5.0,45,0.00,,SKC,0.00,VWS V14.01,2013-08-20 02:19:00,
2013-08-19 21:25:00,82.7,59.2,19.59,ENE,78,3.0,5.0,45,0.00,,SKC,0.00,VWS V14.01,2013-08-20 02:25:00,
2013-08-19 21:30:00,85.9,58.8,19.59,East,81,0.0,2.0,40,0.00,,SKC,0.00,VWS V14.01,2013-08-20 02:30:00,
2013-08-19 21:31:00,82.7,59.2,19.59,East,86,1.0,5.0,45,0.00,,SKC,0.00,VWS V14.01,2013-08-20 02:31:00,
2013-08-19 21:37:00,82.5,59.7,19.59,East,86,1.0,3.0,46,0.00,,SKC,0.00,VWS V14.01,2013-08-20 02:37:00,
2013-08-19 21:43:00,82.2,59.4,19.59,East,85,1.0,3.0,46,0.00,,SKC,0.00,VWS V14.01,2013-08-20 02:43:00,
2013-08-19 21:49:00,81.9,59.7,19.59,East,85,2.0,3.0,47,0.00,,SKC,0.00,VWS V14.01,2013-08-20 02:49:00,
2013-08-19 21:55:00,81.6,60.0,19.59,East,87,0.0,3.0,48,0.00,,SKC,0.00,VWS V14.01,2013-08-20 02:55:00,
2013-08-19 22:00:00,83.7,59.5,19.59,ENE,78,0.0,2.0,44,0.00,,SKC,0.00,VWS V14.01,2013-08-20 03:00:00,
2013-08-19 22:01:00,81.4,60.4,19.59,East,86,5.0,5.0,49,0.00,,SKC,0.00,VWS V14.01,2013-08-20 03:01:00,
2013-08-19 22:07:00,81.1,60.7,19.59,East,84,2.0,5.0,50,0.00,,SKC,0.00,VWS V14.01,2013-08-20 03:07:00,
2013-08-19 22:13:00,80.9,60.5,19.59,East,84,2.0,5.0,50,0.00,,SKC,0.00,VWS V14.01,2013-08-20 03:13:00,
2013-08-19 22:19:00,80.9,61.1,19.59,East,83,2.0,5.0,51,0.00,,SKC,0.00,VWS V14.01,2013-08-20 03:19:00,
2013-08-19 22:25:00,80.7,60.9,19.59,East,82,3.0,5.0,51,0.00,,SKC,0.00,VWS V14.01,2013-08-20 03:25:00,
2013-08-19 22:30:00,82.6,59.1,19.59,East,87,3.0,5.0,45,0.00,,SKC,0.00,VWS V14.01,2013-08-20 03:30:00,
2013-08-19 22:31:00,80.4,61.2,19.59,East,82,2.0,5.0,52,0.00,,SKC,0.00,VWS V14.01,2013-08-20 03:31:00,
2013-08-19 22:37:00,80.2,61.5,19.59,East,82,0.0,5.0,53,0.00,,SKC,0.00,VWS V14.01,2013-08-20 03:37:00,
2013-08-19 22:43:00,80.0,61.9,19.59,East,82,1.0,5.0,54,0.00,,SKC,0.00,VWS V14.01,2013-08-20 03:43:00,
2013-08-19 22:49:00,79.9,61.8,19.59,East,82,2.0,5.0,54,0.00,,SKC,0.00,VWS V14.01,2013-08-20 03:49:00,
2013-08-19 22:55:00,79.8,62.2,19.59,East,82,0.0,5.0,55,0.00,,SKC,0.00,VWS V14.01,2013-08-20 03:55:00,
2013-08-19 23:00:00,81.3,60.3,19.59,East,86,2.0,5.0,49,0.00,,SKC,0.00,VWS V14.01,2013-08-20 04:00:00,
2013-08-19 23:01:00,79.7,62.1,19.59,East,82,2.0,5.0,55,0.00,,SKC,0.00,VWS V14.01,2013-08-20 04:01:00,
2013-08-19 23:02:00,79.7,62.1,19.59,East,82,0.0,5.0,55,0.00,,SKC,0.00,VWS V14.01,2013-08-20 04:02:00,
2013-08-19 23:04:00,79.7,62.1,19.59,East,82,0.0,3.0,55,0.00,,SKC,0.00,VWS V14.01,2013-08-20 04:04:00,
2013-08-19 23:10:00,79.5,62.5,19.59,East,82,1.0,3.0,56,0.00,,SKC,0.00,VWS V14.01,2013-08-20 04:10:00,
2013-08-19 23:16:00,79.4,62.3,19.59,East,84,1.0,5.0,56,0.00,,SKC,0.00,VWS V14.01,2013-08-20 04:16:00,
2013-08-19 23:22:00,79.4,62.3,19.59,East,84,2.0,5.0,56,0.00,,SKC,0.00,VWS V14.01,2013-08-20 04:22:00,
2013-08-19 23:28:00,79.5,62.5,19.59,East,84,0.0,6.0,56,0.00,,SKC,0.00,VWS V14.01,2013-08-20 04:28:00,
2013-08-19 23:30:00,80.4,61.2,19.59,East,82,1.0,5.0,52,0.00,,SKC,0.00,VWS V14.01,2013-08-20 04:30:00,
2013-08-19 23:34:00,79.4,62.3,19.59,East,84,1.0,5.0,56,0.00,,SKC,0.00,VWS V14.01,2013-08-20 04:34:00,
2013-08-19 23:40:00,79.3,62.3,19.59,East,85,2.0,5.0,56,0.00,,SKC,0.00,VWS V14.01,2013-08-20 04:40:00,
2013-08-19 23:46:00,79.1,62.6,19.59,East,85,2.0,5.0,57,0.00,,SKC,0.00,VWS V14.01,2013-08-20 04:46:00,
2013-08-19 23:52:00,78.7,62.7,19.59,East,82,3.0,5.0,58,0.00,,SKC,0.00,VWS V14.01,2013-08-20 04:52:00,
2013-08-19 23:58:00,78.5,62.5,19.59,East,82,0.0,5.0,58,0.00,,SKC,0.00,VWS V14.01,2013-08-20 04:58:00,